sensor_id;sensor_type;location;lat;lon;timestamp;P1;durP1;ratioP1;P2;durP2;ratioP2
79702;SDS011;69172;52.352;5.006;2023-06-22T00:00:59;23.73;;;15.93;;
79702;SDS011;69172;52.352;5.006;2023-06-22T00:03:25;29.52;;;17.23;;
79702;SDS011;69172;52.352;5.006;2023-06-22T00:05:51;28.10;;;16.88;;
79702;SDS011;69172;52.352;5.006;2023-06-22T00:08:23;27.83;;;18.33;;
79702;SDS011;69172;52.352;5.006;2023-06-22T00:10:48;28.67;;;17.40;;
79702;SDS011;69172;52.352;5.006;2023-06-22T00:13:14;32.05;;;18.23;;
79702;SDS011;69172;52.352;5.006;2023-06-22T00:15:40;28.73;;;17.95;;
79702;SDS011;69172;52.352;5.006;2023-06-22T00:18:06;31.90;;;18.33;;
79702;SDS011;69172;52.352;5.006;2023-06-22T00:20:33;32.35;;;19.75;;
79702;SDS011;69172;52.352;5.006;2023-06-22T00:23:01;34.00;;;19.15;;
79702;SDS011;69172;52.352;5.006;2023-06-22T00:25:31;32.00;;;20.00;;
79702;SDS011;69172;52.352;5.006;2023-06-22T00:27:56;32.97;;;20.48;;
79702;SDS011;69172;52.352;5.006;2023-06-22T00:30:22;36.17;;;21.23;;
79702;SDS011;69172;52.352;5.006;2023-06-22T00:32:47;38.85;;;21.55;;
79702;SDS011;69172;52.352;5.006;2023-06-22T00:35:13;35.80;;;20.23;;
79702;SDS011;69172;52.352;5.006;2023-06-22T00:37:39;39.92;;;21.67;;
79702;SDS011;69172;52.352;5.006;2023-06-22T00:40:07;35.13;;;21.63;;
79702;SDS011;69172;52.352;5.006;2023-06-22T00:42:36;35.60;;;21.92;;
79702;SDS011;69172;52.352;5.006;2023-06-22T00:45:01;35.78;;;21.15;;
79702;SDS011;69172;52.352;5.006;2023-06-22T00:47:27;39.50;;;22.92;;
79702;SDS011;69172;52.352;5.006;2023-06-22T00:49:53;40.08;;;22.67;;
79702;SDS011;69172;52.352;5.006;2023-06-22T00:52:21;40.70;;;23.98;;
79702;SDS011;69172;52.352;5.006;2023-06-22T00:54:51;38.58;;;22.33;;
79702;SDS011;69172;52.352;5.006;2023-06-22T00:57:17;40.53;;;23.23;;
79702;SDS011;69172;52.352;5.006;2023-06-22T00:59:44;39.22;;;21.73;;
79702;SDS011;69172;52.352;5.006;2023-06-22T01:02:10;36.13;;;23.15;;
79702;SDS011;69172;52.352;5.006;2023-06-22T01:04:37;37.53;;;22.80;;
79702;SDS011;69172;52.352;5.006;2023-06-22T01:10:07;38.20;;;23.80;;
79702;SDS011;69172;52.352;5.006;2023-06-22T01:12:40;38.83;;;23.35;;
79702;SDS011;69172;52.352;5.006;2023-06-22T01:15:20;37.97;;;23.17;;
79702;SDS011;69172;52.352;5.006;2023-06-22T01:17:59;38.65;;;23.33;;
79702;SDS011;69172;52.352;5.006;2023-06-22T01:20:28;39.83;;;23.10;;
79702;SDS011;69172;52.352;5.006;2023-06-22T01:23:14;42.55;;;23.92;;
79702;SDS011;69172;52.352;5.006;2023-06-22T01:25:54;40.28;;;23.55;;
79702;SDS011;69172;52.352;5.006;2023-06-22T01:28:46;45.08;;;24.98;;
79702;SDS011;69172;52.352;5.006;2023-06-22T01:31:16;41.40;;;23.83;;
79702;SDS011;69172;52.352;5.006;2023-06-22T01:33:44;43.33;;;25.38;;
79702;SDS011;69172;52.352;5.006;2023-06-22T01:36:23;42.42;;;24.73;;
79702;SDS011;69172;52.352;5.006;2023-06-22T01:38:50;42.45;;;25.33;;
79702;SDS011;69172;52.352;5.006;2023-06-22T01:41:17;39.45;;;23.70;;
79702;SDS011;69172;52.352;5.006;2023-06-22T01:43:44;40.47;;;24.08;;
79702;SDS011;69172;52.352;5.006;2023-06-22T01:46:10;37.75;;;22.63;;
79702;SDS011;69172;52.352;5.006;2023-06-22T01:48:37;34.75;;;22.08;;
79702;SDS011;69172;52.352;5.006;2023-06-22T01:51:04;36.83;;;23.05;;
79702;SDS011;69172;52.352;5.006;2023-06-22T01:53:29;33.17;;;19.15;;
79702;SDS011;69172;52.352;5.006;2023-06-22T01:55:55;28.00;;;17.50;;
79702;SDS011;69172;52.352;5.006;2023-06-22T01:58:23;26.88;;;15.65;;
79702;SDS011;69172;52.352;5.006;2023-06-22T02:00:56;26.48;;;16.40;;
79702;SDS011;69172;52.352;5.006;2023-06-22T02:03:34;23.95;;;14.40;;
79702;SDS011;69172;52.352;5.006;2023-06-22T02:06:10;23.55;;;13.55;;
79702;SDS011;69172;52.352;5.006;2023-06-22T02:08:41;23.20;;;13.45;;
79702;SDS011;69172;52.352;5.006;2023-06-22T02:11:13;23.23;;;13.63;;
79702;SDS011;69172;52.352;5.006;2023-06-22T02:13:41;26.60;;;14.68;;
79702;SDS011;69172;52.352;5.006;2023-06-22T02:16:11;22.25;;;13.98;;
79702;SDS011;69172;52.352;5.006;2023-06-22T02:18:37;24.75;;;14.43;;
79702;SDS011;69172;52.352;5.006;2023-06-22T02:21:05;26.17;;;16.02;;
79702;SDS011;69172;52.352;5.006;2023-06-22T02:23:30;27.17;;;16.60;;
79702;SDS011;69172;52.352;5.006;2023-06-22T02:25:58;26.80;;;16.42;;
79702;SDS011;69172;52.352;5.006;2023-06-22T02:28:23;30.45;;;17.88;;
79702;SDS011;69172;52.352;5.006;2023-06-22T02:30:48;27.92;;;16.85;;
79702;SDS011;69172;52.352;5.006;2023-06-22T02:33:14;29.13;;;16.05;;
79702;SDS011;69172;52.352;5.006;2023-06-22T02:35:39;31.95;;;17.75;;
79702;SDS011;69172;52.352;5.006;2023-06-22T02:40:35;26.85;;;15.82;;
79702;SDS011;69172;52.352;5.006;2023-06-22T02:43:01;27.83;;;16.58;;
79702;SDS011;69172;52.352;5.006;2023-06-22T02:45:27;27.80;;;17.40;;
79702;SDS011;69172;52.352;5.006;2023-06-22T02:47:53;29.65;;;17.23;;
79702;SDS011;69172;52.352;5.006;2023-06-22T02:50:19;28.15;;;17.73;;
79702;SDS011;69172;52.352;5.006;2023-06-22T02:52:44;32.97;;;18.38;;
79702;SDS011;69172;52.352;5.006;2023-06-22T02:55:09;27.90;;;16.88;;
79702;SDS011;69172;52.352;5.006;2023-06-22T02:57:35;30.27;;;17.08;;
79702;SDS011;69172;52.352;5.006;2023-06-22T03:00:02;32.05;;;18.40;;
79702;SDS011;69172;52.352;5.006;2023-06-22T03:02:41;29.55;;;17.90;;
79702;SDS011;69172;52.352;5.006;2023-06-22T03:05:06;28.38;;;18.13;;
79702;SDS011;69172;52.352;5.006;2023-06-22T03:07:39;33.08;;;18.70;;
79702;SDS011;69172;52.352;5.006;2023-06-22T03:10:05;33.83;;;19.50;;
79702;SDS011;69172;52.352;5.006;2023-06-22T03:12:32;30.55;;;18.80;;
79702;SDS011;69172;52.352;5.006;2023-06-22T03:14:57;34.25;;;20.80;;
79702;SDS011;69172;52.352;5.006;2023-06-22T03:17:23;32.78;;;20.05;;
79702;SDS011;69172;52.352;5.006;2023-06-22T03:19:48;30.88;;;20.48;;
79702;SDS011;69172;52.352;5.006;2023-06-22T03:22:14;34.55;;;20.65;;
79702;SDS011;69172;52.352;5.006;2023-06-22T03:24:40;30.52;;;19.60;;
79702;SDS011;69172;52.352;5.006;2023-06-22T03:27:05;32.15;;;19.80;;
79702;SDS011;69172;52.352;5.006;2023-06-22T03:29:31;31.02;;;18.25;;
79702;SDS011;69172;52.352;5.006;2023-06-22T03:31:56;34.10;;;19.20;;
79702;SDS011;69172;52.352;5.006;2023-06-22T03:34:22;33.80;;;19.92;;
79702;SDS011;69172;52.352;5.006;2023-06-22T03:36:47;34.00;;;20.30;;
79702;SDS011;69172;52.352;5.006;2023-06-22T03:39:12;31.42;;;20.05;;
79702;SDS011;69172;52.352;5.006;2023-06-22T03:41:38;32.55;;;20.40;;
79702;SDS011;69172;52.352;5.006;2023-06-22T03:44:04;36.97;;;21.42;;
79702;SDS011;69172;52.352;5.006;2023-06-22T03:46:29;32.65;;;20.77;;
79702;SDS011;69172;52.352;5.006;2023-06-22T03:48:54;34.55;;;20.95;;
79702;SDS011;69172;52.352;5.006;2023-06-22T03:51:20;33.95;;;21.45;;
79702;SDS011;69172;52.352;5.006;2023-06-22T03:53:45;37.17;;;21.58;;
79702;SDS011;69172;52.352;5.006;2023-06-22T03:56:11;40.17;;;22.40;;
79702;SDS011;69172;52.352;5.006;2023-06-22T03:58:36;33.83;;;20.92;;
79702;SDS011;69172;52.352;5.006;2023-06-22T04:01:07;34.85;;;20.92;;
79702;SDS011;69172;52.352;5.006;2023-06-22T04:03:36;35.92;;;20.92;;
79702;SDS011;69172;52.352;5.006;2023-06-22T04:06:02;33.35;;;20.13;;
79702;SDS011;69172;52.352;5.006;2023-06-22T04:08:27;31.83;;;18.20;;
79702;SDS011;69172;52.352;5.006;2023-06-22T04:10:53;27.05;;;16.77;;
79702;SDS011;69172;52.352;5.006;2023-06-22T04:13:18;25.08;;;15.40;;
79702;SDS011;69172;52.352;5.006;2023-06-22T04:15:44;25.20;;;14.60;;
79702;SDS011;69172;52.352;5.006;2023-06-22T04:18:10;26.98;;;15.82;;
79702;SDS011;69172;52.352;5.006;2023-06-22T04:20:35;24.45;;;15.48;;
79702;SDS011;69172;52.352;5.006;2023-06-22T04:23:01;23.83;;;14.88;;
79702;SDS011;69172;52.352;5.006;2023-06-22T04:25:27;25.88;;;15.10;;
79702;SDS011;69172;52.352;5.006;2023-06-22T04:27:52;24.40;;;15.48;;
79702;SDS011;69172;52.352;5.006;2023-06-22T04:30:17;21.98;;;14.88;;
79702;SDS011;69172;52.352;5.006;2023-06-22T04:32:43;26.25;;;15.73;;
79702;SDS011;69172;52.352;5.006;2023-06-22T04:35:10;25.52;;;15.88;;
79702;SDS011;69172;52.352;5.006;2023-06-22T04:37:35;25.48;;;15.70;;
79702;SDS011;69172;52.352;5.006;2023-06-22T04:40:01;25.15;;;16.13;;
79702;SDS011;69172;52.352;5.006;2023-06-22T04:42:29;26.02;;;15.98;;
79702;SDS011;69172;52.352;5.006;2023-06-22T04:44:55;24.27;;;15.65;;
79702;SDS011;69172;52.352;5.006;2023-06-22T04:47:20;24.20;;;15.02;;
79702;SDS011;69172;52.352;5.006;2023-06-22T04:49:46;25.77;;;16.20;;
79702;SDS011;69172;52.352;5.006;2023-06-22T04:52:12;24.88;;;16.08;;
79702;SDS011;69172;52.352;5.006;2023-06-22T04:54:39;27.50;;;16.55;;
79702;SDS011;69172;52.352;5.006;2023-06-22T04:57:13;27.23;;;17.70;;
79702;SDS011;69172;52.352;5.006;2023-06-22T04:59:39;28.13;;;18.20;;
79702;SDS011;69172;52.352;5.006;2023-06-22T05:02:06;28.75;;;18.15;;
79702;SDS011;69172;52.352;5.006;2023-06-22T05:04:32;27.55;;;17.67;;
79702;SDS011;69172;52.352;5.006;2023-06-22T05:06:58;29.45;;;18.10;;
79702;SDS011;69172;52.352;5.006;2023-06-22T05:09:25;30.50;;;18.55;;
79702;SDS011;69172;52.352;5.006;2023-06-22T05:11:50;30.92;;;19.08;;
79702;SDS011;69172;52.352;5.006;2023-06-22T05:14:16;35.97;;;22.10;;
79702;SDS011;69172;52.352;5.006;2023-06-22T05:16:43;33.97;;;22.17;;
79702;SDS011;69172;52.352;5.006;2023-06-22T05:19:09;38.20;;;23.48;;
79702;SDS011;69172;52.352;5.006;2023-06-22T05:21:35;37.63;;;24.85;;
79702;SDS011;69172;52.352;5.006;2023-06-22T05:24:00;37.35;;;25.23;;
79702;SDS011;69172;52.352;5.006;2023-06-22T05:26:28;35.38;;;25.13;;
79702;SDS011;69172;52.352;5.006;2023-06-22T05:28:54;39.35;;;26.60;;
79702;SDS011;69172;52.352;5.006;2023-06-22T05:31:20;38.65;;;25.52;;
79702;SDS011;69172;52.352;5.006;2023-06-22T05:33:46;38.95;;;26.52;;
79702;SDS011;69172;52.352;5.006;2023-06-22T05:36:12;38.83;;;25.13;;
79702;SDS011;69172;52.352;5.006;2023-06-22T05:38:38;39.95;;;25.90;;
79702;SDS011;69172;52.352;5.006;2023-06-22T05:41:04;39.35;;;26.92;;
79702;SDS011;69172;52.352;5.006;2023-06-22T05:43:30;39.35;;;28.48;;
79702;SDS011;69172;52.352;5.006;2023-06-22T05:45:56;39.13;;;26.70;;
79702;SDS011;69172;52.352;5.006;2023-06-22T05:48:22;41.35;;;27.30;;
79702;SDS011;69172;52.352;5.006;2023-06-22T05:50:47;42.83;;;28.95;;
79702;SDS011;69172;52.352;5.006;2023-06-22T05:53:12;42.00;;;28.30;;
79702;SDS011;69172;52.352;5.006;2023-06-22T05:55:38;43.92;;;27.33;;
79702;SDS011;69172;52.352;5.006;2023-06-22T05:58:03;40.03;;;28.80;;
79702;SDS011;69172;52.352;5.006;2023-06-22T06:00:29;40.35;;;28.92;;
79702;SDS011;69172;52.352;5.006;2023-06-22T06:02:55;39.35;;;28.65;;
79702;SDS011;69172;52.352;5.006;2023-06-22T06:05:20;43.00;;;29.42;;
79702;SDS011;69172;52.352;5.006;2023-06-22T06:07:46;40.15;;;27.42;;
79702;SDS011;69172;52.352;5.006;2023-06-22T06:10:11;43.47;;;29.02;;
79702;SDS011;69172;52.352;5.006;2023-06-22T06:12:37;39.60;;;26.88;;
79702;SDS011;69172;52.352;5.006;2023-06-22T06:15:03;41.00;;;27.73;;
79702;SDS011;69172;52.352;5.006;2023-06-22T06:17:30;40.03;;;27.08;;
79702;SDS011;69172;52.352;5.006;2023-06-22T06:19:55;39.95;;;27.17;;
79702;SDS011;69172;52.352;5.006;2023-06-22T06:22:21;41.50;;;26.48;;
79702;SDS011;69172;52.352;5.006;2023-06-22T06:24:48;40.25;;;25.92;;
79702;SDS011;69172;52.352;5.006;2023-06-22T06:27:14;39.38;;;26.10;;
79702;SDS011;69172;52.352;5.006;2023-06-22T06:29:40;41.97;;;26.83;;
79702;SDS011;69172;52.352;5.006;2023-06-22T06:32:06;37.13;;;25.95;;
79702;SDS011;69172;52.352;5.006;2023-06-22T06:34:31;40.08;;;26.33;;
79702;SDS011;69172;52.352;5.006;2023-06-22T06:36:57;40.58;;;28.08;;
79702;SDS011;69172;52.352;5.006;2023-06-22T06:39:22;40.72;;;26.85;;
79702;SDS011;69172;52.352;5.006;2023-06-22T06:41:48;40.78;;;26.80;;
79702;SDS011;69172;52.352;5.006;2023-06-22T06:44:13;37.97;;;26.10;;
79702;SDS011;69172;52.352;5.006;2023-06-22T06:46:39;37.92;;;24.17;;
79702;SDS011;69172;52.352;5.006;2023-06-22T06:49:04;39.08;;;25.90;;
79702;SDS011;69172;52.352;5.006;2023-06-22T06:51:30;38.33;;;24.83;;
79702;SDS011;69172;52.352;5.006;2023-06-22T06:53:55;35.92;;;26.05;;
79702;SDS011;69172;52.352;5.006;2023-06-22T06:56:20;42.53;;;28.77;;
79702;SDS011;69172;52.352;5.006;2023-06-22T06:58:46;36.10;;;25.92;;
79702;SDS011;69172;52.352;5.006;2023-06-22T07:01:14;38.53;;;25.92;;
79702;SDS011;69172;52.352;5.006;2023-06-22T07:03:39;38.42;;;25.75;;
79702;SDS011;69172;52.352;5.006;2023-06-22T07:06:05;37.25;;;25.83;;
79702;SDS011;69172;52.352;5.006;2023-06-22T07:08:30;40.92;;;25.77;;
79702;SDS011;69172;52.352;5.006;2023-06-22T07:10:55;36.03;;;25.20;;
79702;SDS011;69172;52.352;5.006;2023-06-22T07:13:21;35.40;;;24.83;;
79702;SDS011;69172;52.352;5.006;2023-06-22T07:15:48;37.63;;;26.35;;
79702;SDS011;69172;52.352;5.006;2023-06-22T07:18:13;35.30;;;24.88;;
79702;SDS011;69172;52.352;5.006;2023-06-22T07:20:38;36.00;;;26.15;;
79702;SDS011;69172;52.352;5.006;2023-06-22T07:23:07;38.38;;;26.48;;
79702;SDS011;69172;52.352;5.006;2023-06-22T07:25:32;39.65;;;26.90;;
79702;SDS011;69172;52.352;5.006;2023-06-22T07:27:59;34.83;;;24.67;;
79702;SDS011;69172;52.352;5.006;2023-06-22T07:30:27;34.25;;;24.88;;
79702;SDS011;69172;52.352;5.006;2023-06-22T07:32:53;36.80;;;24.77;;
79702;SDS011;69172;52.352;5.006;2023-06-22T07:35:19;32.22;;;23.13;;
79702;SDS011;69172;52.352;5.006;2023-06-22T07:37:44;31.95;;;21.73;;
79702;SDS011;69172;52.352;5.006;2023-06-22T07:40:10;30.40;;;20.55;;
79702;SDS011;69172;52.352;5.006;2023-06-22T07:42:36;30.63;;;21.77;;
79702;SDS011;69172;52.352;5.006;2023-06-22T07:45:04;29.02;;;21.15;;
79702;SDS011;69172;52.352;5.006;2023-06-22T07:47:31;32.28;;;22.08;;
79702;SDS011;69172;52.352;5.006;2023-06-22T07:50:00;28.40;;;21.48;;
79702;SDS011;69172;52.352;5.006;2023-06-22T07:52:26;34.15;;;23.63;;
79702;SDS011;69172;52.352;5.006;2023-06-22T07:54:52;31.10;;;23.75;;
79702;SDS011;69172;52.352;5.006;2023-06-22T07:57:18;31.13;;;24.05;;
79702;SDS011;69172;52.352;5.006;2023-06-22T07:59:44;36.08;;;23.40;;
79702;SDS011;69172;52.352;5.006;2023-06-22T08:02:09;29.45;;;21.63;;
79702;SDS011;69172;52.352;5.006;2023-06-22T08:04:35;27.60;;;21.45;;
79702;SDS011;69172;52.352;5.006;2023-06-22T08:07:00;27.40;;;20.63;;
79702;SDS011;69172;52.352;5.006;2023-06-22T08:09:30;26.60;;;21.23;;
79702;SDS011;69172;52.352;5.006;2023-06-22T08:11:57;29.10;;;21.27;;
79702;SDS011;69172;52.352;5.006;2023-06-22T08:14:25;29.45;;;22.58;;
79702;SDS011;69172;52.352;5.006;2023-06-22T08:16:51;27.20;;;22.05;;
79702;SDS011;69172;52.352;5.006;2023-06-22T08:19:16;28.17;;;21.27;;
79702;SDS011;69172;52.352;5.006;2023-06-22T08:21:43;28.52;;;22.33;;
79702;SDS011;69172;52.352;5.006;2023-06-22T08:24:08;28.52;;;20.52;;
79702;SDS011;69172;52.352;5.006;2023-06-22T08:26:34;25.50;;;19.10;;
79702;SDS011;69172;52.352;5.006;2023-06-22T08:29:04;27.30;;;18.02;;
79702;SDS011;69172;52.352;5.006;2023-06-22T08:31:30;28.42;;;19.90;;
79702;SDS011;69172;52.352;5.006;2023-06-22T08:33:58;24.83;;;18.42;;
79702;SDS011;69172;52.352;5.006;2023-06-22T08:36:24;28.08;;;19.20;;
79702;SDS011;69172;52.352;5.006;2023-06-22T08:38:50;27.80;;;19.40;;
79702;SDS011;69172;52.352;5.006;2023-06-22T08:41:16;27.88;;;20.27;;
79702;SDS011;69172;52.352;5.006;2023-06-22T08:43:42;29.90;;;21.88;;
79702;SDS011;69172;52.352;5.006;2023-06-22T08:46:09;30.05;;;21.75;;
79702;SDS011;69172;52.352;5.006;2023-06-22T08:48:35;28.05;;;21.33;;
79702;SDS011;69172;52.352;5.006;2023-06-22T08:51:00;30.02;;;21.23;;
79702;SDS011;69172;52.352;5.006;2023-06-22T08:53:25;27.38;;;20.58;;
79702;SDS011;69172;52.352;5.006;2023-06-22T08:55:51;29.92;;;20.42;;
79702;SDS011;69172;52.352;5.006;2023-06-22T08:58:16;31.92;;;22.00;;
79702;SDS011;69172;52.352;5.006;2023-06-22T09:00:43;30.60;;;22.58;;
79702;SDS011;69172;52.352;5.006;2023-06-22T09:03:08;29.08;;;21.73;;
79702;SDS011;69172;52.352;5.006;2023-06-22T09:05:34;37.13;;;23.98;;
79702;SDS011;69172;52.352;5.006;2023-06-22T09:07:59;33.35;;;24.35;;
79702;SDS011;69172;52.352;5.006;2023-06-22T09:10:25;33.67;;;24.80;;
79702;SDS011;69172;52.352;5.006;2023-06-22T09:12:51;34.22;;;24.98;;
79702;SDS011;69172;52.352;5.006;2023-06-22T09:15:17;34.53;;;26.15;;
79702;SDS011;69172;52.352;5.006;2023-06-22T09:17:43;36.65;;;27.10;;
79702;SDS011;69172;52.352;5.006;2023-06-22T09:20:08;35.38;;;25.77;;
79702;SDS011;69172;52.352;5.006;2023-06-22T09:22:35;35.85;;;26.05;;
79702;SDS011;69172;52.352;5.006;2023-06-22T09:25:02;36.47;;;27.13;;
79702;SDS011;69172;52.352;5.006;2023-06-22T09:27:28;39.58;;;28.42;;
79702;SDS011;69172;52.352;5.006;2023-06-22T09:29:54;37.50;;;27.95;;
79702;SDS011;69172;52.352;5.006;2023-06-22T09:32:19;35.22;;;27.00;;
79702;SDS011;69172;52.352;5.006;2023-06-22T09:34:45;37.78;;;27.90;;
79702;SDS011;69172;52.352;5.006;2023-06-22T09:37:10;37.83;;;28.02;;
79702;SDS011;69172;52.352;5.006;2023-06-22T09:39:36;35.58;;;26.80;;
79702;SDS011;69172;52.352;5.006;2023-06-22T09:42:02;35.15;;;27.63;;
79702;SDS011;69172;52.352;5.006;2023-06-22T09:44:27;34.83;;;25.45;;
79702;SDS011;69172;52.352;5.006;2023-06-22T09:46:53;32.65;;;25.58;;
79702;SDS011;69172;52.352;5.006;2023-06-22T09:49:18;34.38;;;25.55;;
79702;SDS011;69172;52.352;5.006;2023-06-22T09:51:44;32.42;;;23.73;;
79702;SDS011;69172;52.352;5.006;2023-06-22T09:54:09;32.70;;;24.05;;
79702;SDS011;69172;52.352;5.006;2023-06-22T09:56:34;33.67;;;24.30;;
79702;SDS011;69172;52.352;5.006;2023-06-22T09:59:00;31.13;;;24.50;;
79702;SDS011;69172;52.352;5.006;2023-06-22T10:01:25;30.30;;;22.92;;
79702;SDS011;69172;52.352;5.006;2023-06-22T10:03:52;28.92;;;21.38;;
79702;SDS011;69172;52.352;5.006;2023-06-22T10:06:19;28.38;;;21.25;;
79702;SDS011;69172;52.352;5.006;2023-06-22T10:08:45;28.92;;;21.50;;
79702;SDS011;69172;52.352;5.006;2023-06-22T10:11:10;31.15;;;22.13;;
79702;SDS011;69172;52.352;5.006;2023-06-22T10:13:35;27.80;;;19.92;;
79702;SDS011;69172;52.352;5.006;2023-06-22T10:16:01;26.95;;;19.25;;
79702;SDS011;69172;52.352;5.006;2023-06-22T10:18:26;26.60;;;19.52;;
79702;SDS011;69172;52.352;5.006;2023-06-22T10:20:52;28.63;;;20.65;;
79702;SDS011;69172;52.352;5.006;2023-06-22T10:23:18;27.23;;;20.05;;
79702;SDS011;69172;52.352;5.006;2023-06-22T10:25:44;26.95;;;21.63;;
79702;SDS011;69172;52.352;5.006;2023-06-22T10:28:10;27.05;;;20.63;;
79702;SDS011;69172;52.352;5.006;2023-06-22T10:30:35;26.35;;;21.25;;
79702;SDS011;69172;52.352;5.006;2023-06-22T10:33:01;28.17;;;20.17;;
79702;SDS011;69172;52.352;5.006;2023-06-22T10:35:26;26.00;;;19.13;;
79702;SDS011;69172;52.352;5.006;2023-06-22T10:37:52;25.88;;;19.05;;
79702;SDS011;69172;52.352;5.006;2023-06-22T10:40:18;26.67;;;19.20;;
79702;SDS011;69172;52.352;5.006;2023-06-22T10:42:44;25.98;;;18.80;;
79702;SDS011;69172;52.352;5.006;2023-06-22T10:45:09;24.52;;;18.25;;
79702;SDS011;69172;52.352;5.006;2023-06-22T10:47:35;24.38;;;18.25;;
79702;SDS011;69172;52.352;5.006;2023-06-22T10:50:01;26.23;;;18.30;;
79702;SDS011;69172;52.352;5.006;2023-06-22T10:52:27;26.08;;;18.85;;
79702;SDS011;69172;52.352;5.006;2023-06-22T10:54:53;30.25;;;20.05;;
79702;SDS011;69172;52.352;5.006;2023-06-22T10:57:18;24.48;;;19.15;;
79702;SDS011;69172;52.352;5.006;2023-06-22T10:59:44;26.25;;;18.42;;
79702;SDS011;69172;52.352;5.006;2023-06-22T11:02:09;26.98;;;21.33;;
79702;SDS011;69172;52.352;5.006;2023-06-22T11:04:35;27.40;;;20.27;;
79702;SDS011;69172;52.352;5.006;2023-06-22T11:07:00;24.45;;;18.38;;
79702;SDS011;69172;52.352;5.006;2023-06-22T11:09:26;25.65;;;19.27;;
79702;SDS011;69172;52.352;5.006;2023-06-22T11:11:52;27.00;;;18.70;;
79702;SDS011;69172;52.352;5.006;2023-06-22T11:14:20;25.00;;;19.40;;
79702;SDS011;69172;52.352;5.006;2023-06-22T11:16:46;24.75;;;18.45;;
79702;SDS011;69172;52.352;5.006;2023-06-22T11:19:11;25.42;;;19.02;;
79702;SDS011;69172;52.352;5.006;2023-06-22T11:21:37;28.20;;;20.10;;
79702;SDS011;69172;52.352;5.006;2023-06-22T11:24:03;28.73;;;19.25;;
79702;SDS011;69172;52.352;5.006;2023-06-22T11:26:28;22.90;;;18.23;;
79702;SDS011;69172;52.352;5.006;2023-06-22T11:28:55;24.92;;;19.02;;
79702;SDS011;69172;52.352;5.006;2023-06-22T11:31:20;24.98;;;18.52;;
79702;SDS011;69172;52.352;5.006;2023-06-22T11:33:45;23.33;;;18.35;;
79702;SDS011;69172;52.352;5.006;2023-06-22T11:36:12;23.33;;;16.17;;
79702;SDS011;69172;52.352;5.006;2023-06-22T11:38:37;23.63;;;17.70;;
79702;SDS011;69172;52.352;5.006;2023-06-22T11:41:05;22.77;;;17.60;;
79702;SDS011;69172;52.352;5.006;2023-06-22T11:43:31;24.75;;;17.15;;
79702;SDS011;69172;52.352;5.006;2023-06-22T11:45:56;25.88;;;17.05;;
79702;SDS011;69172;52.352;5.006;2023-06-22T11:48:23;20.80;;;15.95;;
79702;SDS011;69172;52.352;5.006;2023-06-22T11:50:49;23.40;;;17.73;;
79702;SDS011;69172;52.352;5.006;2023-06-22T11:53:16;24.63;;;17.38;;
79702;SDS011;69172;52.352;5.006;2023-06-22T11:55:42;24.05;;;17.15;;
79702;SDS011;69172;52.352;5.006;2023-06-22T11:58:08;22.63;;;17.17;;
79702;SDS011;69172;52.352;5.006;2023-06-22T12:00:34;22.83;;;16.38;;
79702;SDS011;69172;52.352;5.006;2023-06-22T12:02:59;23.45;;;16.73;;
79702;SDS011;69172;52.352;5.006;2023-06-22T12:05:24;21.45;;;15.55;;
79702;SDS011;69172;52.352;5.006;2023-06-22T12:07:50;22.00;;;15.25;;
79702;SDS011;69172;52.352;5.006;2023-06-22T12:10:18;19.25;;;14.20;;
79702;SDS011;69172;52.352;5.006;2023-06-22T12:12:43;21.48;;;15.05;;
79702;SDS011;69172;52.352;5.006;2023-06-22T12:15:09;21.60;;;15.93;;
79702;SDS011;69172;52.352;5.006;2023-06-22T12:17:35;22.02;;;14.30;;
79702;SDS011;69172;52.352;5.006;2023-06-22T12:20:00;21.08;;;14.20;;
79702;SDS011;69172;52.352;5.006;2023-06-22T12:22:26;21.48;;;14.68;;
79702;SDS011;69172;52.352;5.006;2023-06-22T12:24:52;20.70;;;15.20;;
79702;SDS011;69172;52.352;5.006;2023-06-22T12:27:17;20.65;;;13.40;;
79702;SDS011;69172;52.352;5.006;2023-06-22T12:29:46;17.17;;;13.13;;
79702;SDS011;69172;52.352;5.006;2023-06-22T12:32:11;18.85;;;13.65;;
79702;SDS011;69172;52.352;5.006;2023-06-22T12:34:41;19.15;;;12.02;;
79702;SDS011;69172;52.352;5.006;2023-06-22T12:37:07;16.13;;;12.68;;
79702;SDS011;69172;52.352;5.006;2023-06-22T12:39:33;20.65;;;12.45;;
79702;SDS011;69172;52.352;5.006;2023-06-22T12:41:58;18.35;;;12.32;;
79702;SDS011;69172;52.352;5.006;2023-06-22T12:44:24;20.08;;;13.18;;
79702;SDS011;69172;52.352;5.006;2023-06-22T12:46:49;19.13;;;13.65;;
79702;SDS011;69172;52.352;5.006;2023-06-22T12:49:15;19.65;;;13.63;;
79702;SDS011;69172;52.352;5.006;2023-06-22T12:51:40;20.38;;;14.90;;
79702;SDS011;69172;52.352;5.006;2023-06-22T12:54:10;17.77;;;12.40;;
79702;SDS011;69172;52.352;5.006;2023-06-22T12:56:36;18.20;;;11.32;;
79702;SDS011;69172;52.352;5.006;2023-06-22T12:59:03;16.52;;;11.30;;
79702;SDS011;69172;52.352;5.006;2023-06-22T13:01:29;17.98;;;12.60;;
79702;SDS011;69172;52.352;5.006;2023-06-22T13:03:55;15.82;;;11.93;;
79702;SDS011;69172;52.352;5.006;2023-06-22T13:06:21;18.45;;;11.52;;
79702;SDS011;69172;52.352;5.006;2023-06-22T13:08:46;15.80;;;11.20;;
79702;SDS011;69172;52.352;5.006;2023-06-22T13:11:12;16.80;;;11.73;;
79702;SDS011;69172;52.352;5.006;2023-06-22T13:13:38;16.17;;;11.07;;
79702;SDS011;69172;52.352;5.006;2023-06-22T13:16:03;17.60;;;11.23;;
79702;SDS011;69172;52.352;5.006;2023-06-22T13:18:29;16.58;;;10.90;;
79702;SDS011;69172;52.352;5.006;2023-06-22T13:20:54;17.88;;;11.13;;
79702;SDS011;69172;52.352;5.006;2023-06-22T13:23:20;16.15;;;10.32;;
79702;SDS011;69172;52.352;5.006;2023-06-22T13:25:46;16.90;;;10.52;;
79702;SDS011;69172;52.352;5.006;2023-06-22T13:28:12;17.08;;;10.25;;
79702;SDS011;69172;52.352;5.006;2023-06-22T13:30:39;15.20;;;9.75;;
79702;SDS011;69172;52.352;5.006;2023-06-22T13:33:04;16.55;;;9.60;;
79702;SDS011;69172;52.352;5.006;2023-06-22T13:35:29;14.55;;;9.25;;
79702;SDS011;69172;52.352;5.006;2023-06-22T13:37:55;12.30;;;8.80;;
79702;SDS011;69172;52.352;5.006;2023-06-22T13:40:20;12.55;;;7.75;;
79702;SDS011;69172;52.352;5.006;2023-06-22T13:42:46;13.60;;;8.93;;
79702;SDS011;69172;52.352;5.006;2023-06-22T13:45:11;13.75;;;9.30;;
79702;SDS011;69172;52.352;5.006;2023-06-22T13:47:36;15.35;;;8.88;;
79702;SDS011;69172;52.352;5.006;2023-06-22T13:50:02;12.77;;;8.57;;
79702;SDS011;69172;52.352;5.006;2023-06-22T13:52:28;13.25;;;7.57;;
79702;SDS011;69172;52.352;5.006;2023-06-22T13:54:53;10.77;;;6.22;;
79702;SDS011;69172;52.352;5.006;2023-06-22T13:57:19;12.80;;;7.90;;
79702;SDS011;69172;52.352;5.006;2023-06-22T13:59:44;12.75;;;7.28;;
79702;SDS011;69172;52.352;5.006;2023-06-22T14:02:10;13.57;;;7.65;;
79702;SDS011;69172;52.352;5.006;2023-06-22T14:04:35;12.13;;;7.13;;
79702;SDS011;69172;52.352;5.006;2023-06-22T14:07:00;12.95;;;7.28;;
79702;SDS011;69172;52.352;5.006;2023-06-22T14:09:26;12.30;;;7.13;;
79702;SDS011;69172;52.352;5.006;2023-06-22T14:11:53;12.55;;;7.40;;
79702;SDS011;69172;52.352;5.006;2023-06-22T14:14:20;14.43;;;7.43;;
79702;SDS011;69172;52.352;5.006;2023-06-22T14:16:45;10.60;;;6.25;;
79702;SDS011;69172;52.352;5.006;2023-06-22T14:19:11;13.88;;;7.32;;
79702;SDS011;69172;52.352;5.006;2023-06-22T14:21:36;11.25;;;6.65;;
79702;SDS011;69172;52.352;5.006;2023-06-22T14:24:01;13.73;;;6.95;;